Time;durP1;ratioP1;P1;durP2;ratioP2;P2;SDS_P1;SDS_P2;PMS_P1;PMS_P2;Temp;Humidity;BMP_temperature;BMP_pressure;BME280_temperature;BME280_humidity;BME280_pressure;Samples;Min_cycle;Max_cycle;Signal;HPM_P1;HPM_P2
2024/03/13 00:01:00;;;;;;;1.75;1.10;;;9.00;91.10;;;;;;5115702;28;20072;-73
2024/03/13 00:03:26;;;;;;;1.92;1.15;;;9.00;91.20;;;;;;5114921;28;20489;-73
2024/03/13 00:05:53;;;;;;;1.10;0.82;;;9.00;91.20;;;;;;5097735;28;20043;-72
2024/03/13 00:08:21;;;;;;;2.08;1.15;;;9.00;91.20;;;;;;5133045;27;20208;-73
2024/03/13 00:10:47;;;;;;;1.30;0.82;;;9.10;91.20;;;;;;5133206;28;20047;-72
2024/03/13 00:13:13;;;;;;;1.90;1.20;;;9.00;91.20;;;;;;5133467;27;20084;-73
2024/03/13 00:15:38;;;;;;;1.52;1.10;;;9.00;91.20;;;;;;5133265;27;20165;-72
2024/03/13 00:18:04;;;;;;;1.73;1.02;;;9.00;91.20;;;;;;5097484;28;20492;-73
2024/03/13 00:20:30;;;;;;;1.40;0.90;;;9.00;91.30;;;;;;5114360;28;20043;-72
2024/03/13 00:22:57;;;;;;;1.27;1.00;;;9.00;91.30;;;;;;5097628;28;20470;-73
2024/03/13 00:25:23;;;;;;;1.05;0.90;;;8.90;91.30;;;;;;5114297;28;20509;-73
2024/03/13 00:27:49;;;;;;;1.48;1.00;;;9.00;91.30;;;;;;5132708;27;20035;-73
2024/03/13 00:30:16;;;;;;;1.70;0.90;;;9.00;91.30;;;;;;5133291;27;20039;-73
2024/03/13 00:32:42;;;;;;;2.30;1.27;;;9.00;91.30;;;;;;5097436;28;20032;-73
2024/03/13 00:35:08;;;;;;;2.08;1.25;;;9.00;91.30;;;;;;5080140;28;20047;-73
2024/03/13 00:37:35;;;;;;;2.15;1.23;;;9.00;91.30;;;;;;5097358;28;20465;-72
2024/03/13 00:40:03;;;;;;;1.80;1.00;;;9.10;91.40;;;;;;5117192;28;20042;-73
2024/03/13 00:42:29;;;;;;;1.58;1.10;;;9.00;91.40;;;;;;5118373;28;20038;-73
2024/03/13 00:44:55;;;;;;;1.27;1.00;;;9.00;91.40;;;;;;5100875;27;20390;-73
2024/03/13 00:47:22;;;;;;;1.35;0.80;;;9.00;91.40;;;;;;5117714;27;20091;-73
2024/03/13 00:49:50;;;;;;;1.35;0.80;;;9.00;91.40;;;;;;5101104;27;20130;-72
2024/03/13 00:52:16;;;;;;;1.55;1.05;;;9.00;91.40;;;;;;5115733;28;20035;-73
2024/03/13 00:54:46;;;;;;;1.10;0.85;;;9.00;91.40;;;;;;5135944;28;20039;-73
2024/03/13 00:57:13;;;;;;;1.17;0.73;;;9.00;91.40;;;;;;5135898;27;20390;-73
2024/03/13 00:59:39;;;;;;;1.00;0.60;;;9.00;91.40;;;;;;5136225;27;20053;-72
2024/03/13 01:02:08;;;;;;;1.08;0.80;;;9.00;91.50;;;;;;5135758;27;20073;-74
2024/03/13 01:04:34;;;;;;;1.00;0.75;;;9.00;91.40;;;;;;5084111;27;20147;-72
2024/03/13 01:07:01;;;;;;;0.93;0.80;;;9.00;91.50;;;;;;5135660;27;20074;-73
2024/03/13 01:09:26;;;;;;;1.67;1.00;;;9.00;91.50;;;;;;5117221;28;20058;-73
2024/03/13 01:11:53;;;;;;;1.70;1.05;;;9.00;91.50;;;;;;5135707;28;20031;-74
2024/03/13 01:14:20;;;;;;;1.65;1.00;;;9.00;91.50;;;;;;5117788;28;20061;-73
2024/03/13 01:16:51;;;;;;;2.33;1.30;;;9.00;91.50;;;;;;5100161;28;20059;-73
2024/03/13 01:19:19;;;;;;;1.48;1.02;;;9.10;91.60;;;;;;5135451;27;20055;-73
2024/03/13 01:24:26;;;;;;;0.93;0.80;;;9.00;91.50;;;;;;5103467;27;20049;-74
2024/03/13 01:26:52;;;;;;;1.38;0.90;;;9.00;91.50;;;;;;5117348;28;20043;-73
2024/03/13 01:29:18;;;;;;;1.15;1.02;;;9.00;91.50;;;;;;5135735;27;20042;-73
2024/03/13 01:31:43;;;;;;;1.40;1.13;;;9.00;91.50;;;;;;5135808;28;20039;-73
2024/03/13 01:34:10;;;;;;;1.38;1.08;;;9.00;91.50;;;;;;5100017;28;20129;-73
2024/03/13 01:39:24;;;;;;;1.33;0.80;;;9.10;91.60;;;;;;5135328;27;20195;-73
2024/03/13 01:55:25;;;;;;;1.17;0.88;;;9.10;91.60;;;;;;5134807;28;20041;-72
2024/03/13 01:58:08;;;;;;;1.63;0.90;;;9.00;91.60;;;;;;5116880;28;20039;-73
2024/03/13 02:03:15;;;;;;;0.98;0.80;;;9.10;91.60;;;;;;5134693;28;20039;-73
2024/03/13 02:05:42;;;;;;;1.88;1.10;;;9.10;91.60;;;;;;5135367;27;20043;-73
2024/03/13 02:08:13;;;;;;;1.52;1.10;;;9.10;91.60;;;;;;5134702;27;20058;-72
2024/03/13 02:10:39;;;;;;;1.20;0.90;;;9.10;91.70;;;;;;5134961;27;20067;-73
2024/03/13 02:13:09;;;;;;;1.05;0.82;;;9.10;91.60;;;;;;5135012;27;20039;-72
2024/03/13 02:15:35;;;;;;;1.83;0.93;;;9.00;91.60;;;;;;5134865;27;20032;-73
2024/03/13 02:18:01;;;;;;;1.30;0.90;;;9.20;91.70;;;;;;5116080;27;20084;-73
2024/03/13 02:20:28;;;;;;;0.63;0.60;;;9.10;91.60;;;;;;5134947;27;20043;-73
2024/03/13 02:23:02;;;;;;;1.00;0.70;;;9.10;91.60;;;;;;5117012;27;20043;-73
2024/03/13 02:25:32;;;;;;;1.77;0.90;;;9.10;91.70;;;;;;5117357;28;20046;-73
2024/03/13 02:27:59;;;;;;;0.95;0.80;;;9.10;91.70;;;;;;5134621;27;20490;-73
2024/03/13 02:30:25;;;;;;;1.25;0.90;;;9.10;91.70;;;;;;5132681;28;20062;-72
2024/03/13 02:32:55;;;;;;;1.45;0.90;;;9.10;91.70;;;;;;5115935;28;20486;-74
2024/03/13 02:35:21;;;;;;;0.82;0.68;;;9.10;91.70;;;;;;5099003;27;20069;-73
2024/03/13 02:37:47;;;;;;;1.55;0.90;;;9.10;91.70;;;;;;5134381;27;20503;-73
2024/03/13 02:40:16;;;;;;;1.60;0.90;;;9.20;91.70;;;;;;5134386;27;20074;-74
2024/03/13 02:42:44;;;;;;;1.77;0.90;;;9.10;91.70;;;;;;5132391;28;20043;-71
2024/03/13 02:45:13;;;;;;;0.80;0.80;;;9.10;91.70;;;;;;5115669;28;20424;-73
2024/03/13 02:47:41;;;;;;;1.95;1.00;;;9.20;91.70;;;;;;5134556;27;20043;-73
2024/03/13 02:50:11;;;;;;;1.63;0.80;;;9.20;91.70;;;;;;5134071;27;20051;-73
2024/03/13 02:52:39;;;;;;;0.90;0.70;;;9.20;91.70;;;;;;5134014;28;20418;-73
2024/03/13 02:55:06;;;;;;;2.08;0.90;;;9.20;91.70;;;;;;5133839;27;20475;-73
2024/03/13 02:57:32;;;;;;;1.70;0.90;;;9.20;91.70;;;;;;5133907;27;20031;-73
2024/03/13 02:59:57;;;;;;;2.33;1.10;;;9.20;91.80;;;;;;5134131;27;20037;-73
2024/03/13 03:02:24;;;;;;;2.15;1.25;;;9.30;91.80;;;;;;5133233;27;20054;-74
2024/03/13 03:04:50;;;;;;;2.05;1.20;;;9.20;91.70;;;;;;5115595;28;20039;-73
2024/03/13 03:07:16;;;;;;;2.25;1.20;;;9.30;91.80;;;;;;5133648;28;20043;-73
2024/03/13 03:09:42;;;;;;;2.60;1.20;;;9.30;91.80;;;;;;5098378;28;20394;-73
2024/03/13 03:12:09;;;;;;;1.85;1.02;;;9.30;91.80;;;;;;5133769;27;20050;-73
2024/03/13 03:14:36;;;;;;;3.13;1.20;;;9.30;91.80;;;;;;5115685;28;20073;-73
2024/03/13 03:17:02;;;;;;;2.05;1.10;;;9.30;91.80;;;;;;5098342;27;20035;-73
2024/03/13 03:19:28;;;;;;;1.80;1.00;;;9.30;91.80;;;;;;5115167;28;20070;-73
2024/03/13 03:21:54;;;;;;;1.23;0.80;;;9.30;91.80;;;;;;5133440;27;20042;-73
2024/03/13 03:24:21;;;;;;;1.42;1.00;;;9.40;91.80;;;;;;5133502;27;20042;-73
2024/03/13 03:26:46;;;;;;;1.67;1.00;;;9.30;91.80;;;;;;5133321;27;20047;-73
2024/03/13 03:29:12;;;;;;;1.55;1.00;;;9.30;91.80;;;;;;5133781;27;20047;-73
2024/03/13 03:31:38;;;;;;;1.92;1.15;;;9.30;91.80;;;;;;5115387;28;20063;-73
2024/03/13 03:34:03;;;;;;;1.23;1.00;;;9.30;91.90;;;;;;5114973;27;20102;-73
2024/03/13 03:36:30;;;;;;;0.77;0.70;;;9.40;91.90;;;;;;5115050;28;20031;-73
2024/03/13 03:38:56;;;;;;;1.88;1.10;;;9.30;91.90;;;;;;5114932;28;20077;-73
2024/03/13 03:41:22;;;;;;;1.80;1.17;;;9.40;91.90;;;;;;5115571;27;20070;-73
2024/03/13 03:43:48;;;;;;;0.98;0.80;;;9.40;91.90;;;;;;5097908;28;20049;-73
2024/03/13 03:46:14;;;;;;;2.08;1.00;;;9.40;91.90;;;;;;5133306;27;20122;-73
2024/03/13 03:48:40;;;;;;;2.55;1.35;;;9.40;91.90;;;;;;5133096;27;20038;-73
2024/03/13 03:51:06;;;;;;;1.75;1.17;;;9.50;91.90;;;;;;5133163;27;20050;-73
2024/03/13 03:53:32;;;;;;;1.83;1.00;;;9.40;91.90;;;;;;5115553;27;20039;-73
2024/03/13 03:55:58;;;;;;;1.60;1.10;;;9.40;91.90;;;;;;5133504;27;20047;-73
2024/03/13 03:58:24;;;;;;;2.45;1.20;;;9.40;91.90;;;;;;5133431;27;20039;-73
2024/03/13 04:00:52;;;;;;;1.83;1.15;;;9.40;91.90;;;;;;5114637;28;20043;-73
2024/03/13 04:03:18;;;;;;;2.03;1.17;;;9.40;91.90;;;;;;5097877;28;20486;-73
2024/03/13 04:05:45;;;;;;;2.13;1.30;;;9.50;91.90;;;;;;5132819;27;20035;-72
2024/03/13 04:08:14;;;;;;;2.10;1.23;;;9.50;91.90;;;;;;5114871;28;20122;-73
2024/03/13 04:10:40;;;;;;;3.40;1.75;;;9.50;91.90;;;;;;5096480;28;20044;-73
2024/03/13 04:13:08;;;;;;;2.30;1.23;;;9.60;91.90;;;;;;5132945;28;20482;-73
2024/03/13 04:15:34;;;;;;;1.90;1.30;;;9.60;91.90;;;;;;5103691;27;20042;-73
2024/03/13 04:18:00;;;;;;;2.03;1.20;;;9.50;91.90;;;;;;5140206;27;20142;-73
2024/03/13 04:20:26;;;;;;;1.77;1.13;;;9.60;91.90;;;;;;5140157;27;20521;-73
2024/03/13 04:22:54;;;;;;;2.38;1.40;;;9.60;91.90;;;;;;5121020;27;20047;-73
2024/03/13 04:25:20;;;;;;;2.30;1.20;;;9.70;91.90;;;;;;5121565;27;20035;-73
2024/03/13 04:27:47;;;;;;;2.78;1.40;;;9.60;91.90;;;;;;5121189;27;20126;-73
2024/03/13 04:30:14;;;;;;;2.83;1.55;;;9.70;91.90;;;;;;5140145;27;20039;-73
2024/03/13 04:32:40;;;;;;;2.70;1.48;;;9.70;91.90;;;;;;5140115;27;20035;-72
2024/03/13 04:35:06;;;;;;;2.70;1.27;;;9.70;91.90;;;;;;5121216;27;20031;-73
2024/03/13 04:37:32;;;;;;;2.70;1.38;;;9.80;91.90;;;;;;5103815;27;20049;-73
2024/03/13 04:39:59;;;;;;;3.63;1.67;;;9.80;91.90;;;;;;5121087;27;20070;-72
2024/03/13 04:42:25;;;;;;;3.13;1.50;;;9.80;91.90;;;;;;5139503;27;20559;-73
2024/03/13 04:44:51;;;;;;;3.60;1.60;;;9.80;91.90;;;;;;5139166;27;20047;-73
2024/03/13 04:47:17;;;;;;;2.05;1.25;;;9.80;91.90;;;;;;5139360;27;20062;-73
2024/03/13 04:49:43;;;;;;;2.50;1.30;;;9.80;91.90;;;;;;5120632;27;20039;-73
2024/03/13 04:52:09;;;;;;;2.28;1.38;;;9.80;91.90;;;;;;5120780;27;20047;-73
2024/03/13 04:54:34;;;;;;;2.95;1.33;;;9.90;91.90;;;;;;5120774;27;20066;-73
2024/03/13 04:57:00;;;;;;;1.95;1.25;;;9.90;91.90;;;;;;5139731;27;20118;-73
2024/03/13 04:59:26;;;;;;;2.55;1.40;;;9.90;91.90;;;;;;5139255;27;20031;-73
2024/03/13 05:01:52;;;;;;;2.30;1.30;;;10.00;92.00;;;;;;5139708;27;20050;-73
2024/03/13 05:04:18;;;;;;;2.33;1.42;;;10.00;91.90;;;;;;5139154;27;20050;-73
2024/03/13 05:06:44;;;;;;;2.38;1.27;;;10.00;91.90;;;;;;5139415;27;20039;-73
2024/03/13 05:09:13;;;;;;;1.58;1.05;;;10.00;91.90;;;;;;5139048;27;20123;-73
2024/03/13 05:11:39;;;;;;;3.17;1.38;;;10.10;91.90;;;;;;5120951;27;20035;-73
2024/03/13 05:14:06;;;;;;;2.38;1.38;;;10.10;91.90;;;;;;5120635;27;20393;-73
2024/03/13 05:16:31;;;;;;;2.40;1.27;;;10.10;91.90;;;;;;5139021;27;20117;-73
2024/03/13 05:18:57;;;;;;;2.60;1.35;;;10.10;91.90;;;;;;5139101;27;20070;-73
2024/03/13 05:21:26;;;;;;;2.70;1.30;;;10.20;91.90;;;;;;5139422;27;20162;-73
2024/03/13 05:23:52;;;;;;;2.30;1.35;;;10.20;91.90;;;;;;5139534;27;20042;-73
2024/03/13 05:26:17;;;;;;;2.45;1.10;;;10.20;91.90;;;;;;5135879;27;20035;-73
2024/03/13 05:28:43;;;;;;;1.95;1.17;;;10.10;92.00;;;;;;5135489;27;20118;-73
2024/03/13 05:31:10;;;;;;;2.30;1.23;;;10.20;92.00;;;;;;5117222;28;20031;-73
2024/03/13 05:33:38;;;;;;;1.77;1.10;;;10.20;92.00;;;;;;5117057;27;20031;-75
2024/03/13 05:36:07;;;;;;;2.35;1.20;;;10.20;92.00;;;;;;5136325;27;20043;-72
2024/03/13 05:38:32;;;;;;;2.33;1.13;;;10.20;92.00;;;;;;5135891;27;20551;-73
2024/03/13 05:40:58;;;;;;;1.95;1.10;;;10.20;92.10;;;;;;5135724;27;20039;-73
2024/03/13 05:43:25;;;;;;;1.88;1.02;;;10.20;92.10;;;;;;5135647;27;20043;-73
2024/03/13 05:45:51;;;;;;;1.67;1.10;;;10.20;92.10;;;;;;5117772;28;20043;-73
2024/03/13 05:48:17;;;;;;;1.70;1.00;;;10.20;92.10;;;;;;5135544;27;20580;-73
2024/03/13 05:50:42;;;;;;;1.38;0.93;;;10.20;92.10;;;;;;5135121;27;20083;-73
2024/03/13 05:53:08;;;;;;;2.33;0.95;;;10.20;92.10;;;;;;5116845;27;20031;-73
2024/03/13 05:55:35;;;;;;;2.40;1.13;;;10.30;92.20;;;;;;5134877;27;20032;-73
2024/03/13 05:58:01;;;;;;;1.77;1.20;;;10.20;92.10;;;;;;5116667;28;20031;-73
2024/03/13 06:00:27;;;;;;;1.17;0.82;;;10.30;92.10;;;;;;5116527;28;20054;-73
2024/03/13 06:02:53;;;;;;;1.85;1.00;;;10.20;92.10;;;;;;5100058;28;20042;-73
2024/03/13 06:05:19;;;;;;;2.55;1.00;;;10.30;92.10;;;;;;5116886;28;20039;-72
2024/03/13 06:07:46;;;;;;;1.75;0.90;;;10.30;92.10;;;;;;5135234;27;20528;-73
2024/03/13 06:10:12;;;;;;;1.23;0.82;;;10.30;92.10;;;;;;5116920;28;20039;-73
2024/03/13 06:12:38;;;;;;;1.25;0.85;;;10.40;92.20;;;;;;5135292;27;20467;-73
2024/03/13 06:15:12;;;;;;;0.75;0.68;;;10.30;92.20;;;;;;5099343;28;20052;-73
2024/03/13 06:17:38;;;;;;;2.47;1.00;;;10.30;92.20;;;;;;5116306;28;20039;-73
2024/03/13 06:20:11;;;;;;;1.48;1.00;;;10.30;92.20;;;;;;5134678;27;20460;-73
2024/03/13 06:22:38;;;;;;;1.85;1.17;;;10.40;92.30;;;;;;5135252;27;20043;-74
2024/03/13 06:25:06;;;;;;;1.23;0.82;;;10.30;92.30;;;;;;5117250;28;20062;-73
2024/03/13 06:27:33;;;;;;;1.20;0.80;;;10.40;92.30;;;;;;5082711;28;20062;-73
2024/03/13 06:30:00;;;;;;;1.67;1.10;;;10.40;92.30;;;;;;5135121;27;20039;-73
2024/03/13 06:32:28;;;;;;;1.00;0.65;;;10.40;92.30;;;;;;5116370;28;20049;-73
2024/03/13 06:34:55;;;;;;;1.42;0.90;;;10.40;92.30;;;;;;5116172;28;20092;-73
2024/03/13 06:37:23;;;;;;;1.23;0.80;;;10.40;92.30;;;;;;5134590;27;20485;-73
2024/03/13 06:39:50;;;;;;;1.00;0.68;;;10.40;92.30;;;;;;5091288;28;20032;-73
2024/03/13 06:42:16;;;;;;;1.30;1.00;;;10.40;92.30;;;;;;5091569;28;20135;-73
2024/03/13 06:44:43;;;;;;;1.70;1.02;;;10.50;92.30;;;;;;5074636;28;20134;-73
2024/03/13 06:47:11;;;;;;;1.30;0.90;;;10.50;92.60;;;;;;5091327;28;20048;-73
2024/03/13 06:49:37;;;;;;;1.05;0.77;;;10.40;92.30;;;;;;5074575;28;20177;-73
2024/03/13 06:52:04;;;;;;;0.85;0.70;;;10.50;92.40;;;;;;5072936;28;20044;-73
2024/03/13 06:54:29;;;;;;;1.17;0.80;;;10.50;92.40;;;;;;5074486;28;20072;-73
2024/03/13 06:56:55;;;;;;;1.40;0.90;;;10.50;92.40;;;;;;5074770;28;20125;-73
2024/03/13 06:59:21;;;;;;;0.88;0.70;;;10.50;92.40;;;;;;5074372;28;20040;-73
2024/03/13 07:01:47;;;;;;;1.60;1.00;;;10.50;92.40;;;;;;5073927;28;20048;-73
2024/03/13 07:04:13;;;;;;;1.85;0.80;;;10.50;92.40;;;;;;5091079;28;20044;-73
2024/03/13 07:06:41;;;;;;;1.90;1.05;;;10.50;92.40;;;;;;5074014;28;20093;-73
2024/03/13 07:09:07;;;;;;;1.85;1.00;;;10.50;92.40;;;;;;5091385;28;20491;-74
2024/03/13 07:11:32;;;;;;;1.45;1.00;;;10.40;92.40;;;;;;5125421;27;20091;-74
2024/03/13 07:13:58;;;;;;;1.63;1.10;;;10.50;92.40;;;;;;5115436;27;20048;-73
2024/03/13 07:16:27;;;;;;;1.80;1.00;;;10.60;92.50;;;;;;5133711;27;20031;-73
2024/03/13 07:18:59;;;;;;;1.38;0.98;;;10.60;92.50;;;;;;5115335;28;20047;-73
2024/03/13 07:21:25;;;;;;;1.63;1.20;;;10.60;92.50;;;;;;5133690;27;20502;-74
2024/03/13 07:23:52;;;;;;;1.88;1.17;;;10.60;92.50;;;;;;5098318;28;20062;-74
2024/03/13 07:26:17;;;;;;;1.60;1.05;;;10.60;92.50;;;;;;5134084;27;20054;-73
2024/03/13 07:28:44;;;;;;;2.90;1.55;;;10.60;92.50;;;;;;5098562;28;20051;-73
2024/03/13 07:31:09;;;;;;;1.30;1.00;;;10.60;92.50;;;;;;5114995;28;20525;-73
2024/03/13 07:33:37;;;;;;;1.65;1.20;;;10.60;92.50;;;;;;5114961;28;20039;-73
2024/03/13 07:36:04;;;;;;;2.42;1.45;;;10.60;92.50;;;;;;5133597;27;20117;-73
2024/03/13 07:38:31;;;;;;;2.88;1.38;;;10.60;92.50;;;;;;5133314;27;20123;-72
2024/03/13 07:40:57;;;;;;;2.80;1.45;;;10.70;92.50;;;;;;5133460;27;20039;-73
2024/03/13 07:43:23;;;;;;;2.83;1.45;;;10.60;92.50;;;;;;5133797;27;20528;-73
2024/03/13 07:45:49;;;;;;;2.35;1.38;;;10.70;92.50;;;;;;5134012;27;20039;-73
2024/03/13 07:48:14;;;;;;;2.83;1.70;;;10.70;92.50;;;;;;5114243;27;20383;-72
2024/03/13 07:50:41;;;;;;;2.25;1.42;;;10.70;92.50;;;;;;5132890;28;20431;-73
2024/03/13 07:53:08;;;;;;;2.42;1.50;;;10.70;92.50;;;;;;5133492;28;20135;-72
2024/03/13 07:55:36;;;;;;;2.72;1.65;;;10.70;92.50;;;;;;5133390;28;20399;-72
2024/03/13 07:58:03;;;;;;;1.60;1.20;;;10.70;92.50;;;;;;5133278;28;20091;-72
2024/03/13 08:00:29;;;;;;;2.30;1.38;;;10.80;92.50;;;;;;5114690;28;20130;-72
2024/03/13 08:02:55;;;;;;;4.10;1.77;;;10.80;92.50;;;;;;5133695;27;20073;-73
2024/03/13 08:05:22;;;;;;;2.75;1.50;;;10.80;92.50;;;;;;5115313;28;20043;-73
2024/03/13 08:07:48;;;;;;;2.65;1.60;;;10.80;92.50;;;;;;5114477;28;20145;-73
2024/03/13 08:10:18;;;;;;;2.63;1.60;;;10.80;92.50;;;;;;5132937;27;20171;-73
2024/03/13 08:12:45;;;;;;;1.98;1.30;;;10.90;92.60;;;;;;5114657;28;20489;-72
2024/03/13 08:15:11;;;;;;;3.42;1.50;;;10.90;92.50;;;;;;5114479;27;20036;-73
2024/03/13 08:17:38;;;;;;;2.15;1.40;;;10.90;92.50;;;;;;5133018;27;20131;-73
2024/03/13 08:20:05;;;;;;;1.65;1.30;;;10.80;92.50;;;;;;5114542;28;20050;-73
2024/03/13 08:22:31;;;;;;;2.33;1.30;;;10.90;92.50;;;;;;5133027;28;20039;-72
2024/03/13 08:24:58;;;;;;;2.97;1.50;;;10.90;92.50;;;;;;5114321;28;20047;-72
2024/03/13 08:27:24;;;;;;;2.22;1.60;;;11.00;92.60;;;;;;5132791;27;20035;-72
2024/03/13 08:29:50;;;;;;;4.35;1.63;;;11.00;92.60;;;;;;5115003;27;20047;-72
2024/03/13 08:32:16;;;;;;;3.08;1.70;;;11.00;92.50;;;;;;5132962;27;20070;-72
2024/03/13 08:34:44;;;;;;;3.10;1.70;;;11.10;92.50;;;;;;5132989;27;20486;-73
2024/03/13 08:37:10;;;;;;;3.40;1.83;;;11.10;92.50;;;;;;5132530;27;20043;-73
2024/03/13 08:39:36;;;;;;;3.95;1.85;;;11.00;92.50;;;;;;5114112;27;20085;-73
2024/03/13 08:42:03;;;;;;;4.05;2.00;;;11.10;92.50;;;;;;5114090;27;20498;-73
2024/03/13 08:44:29;;;;;;;2.55;1.58;;;11.20;92.60;;;;;;5132596;27;20042;-73
2024/03/13 08:46:57;;;;;;;3.22;1.67;;;11.00;92.50;;;;;;5132757;27;20553;-72
2024/03/13 08:49:22;;;;;;;3.30;1.70;;;11.10;92.50;;;;;;5114146;28;20039;-72
2024/03/13 08:51:48;;;;;;;4.97;2.10;;;11.10;92.50;;;;;;5132511;28;20039;-72
2024/03/13 08:54:14;;;;;;;3.83;1.90;;;11.10;92.50;;;;;;5132412;27;20133;-73
2024/03/13 08:56:39;;;;;;;3.95;1.80;;;11.10;92.50;;;;;;5114190;27;20067;-73
2024/03/13 08:59:06;;;;;;;2.88;1.63;;;11.10;92.60;;;;;;5097046;28;20032;-72
2024/03/13 09:01:38;;;;;;;2.67;1.60;;;11.10;92.60;;;;;;5134514;27;20042;-73
2024/03/13 09:04:04;;;;;;;2.97;1.60;;;11.20;92.60;;;;;;5117593;28;20509;-73
2024/03/13 09:06:30;;;;;;;3.17;1.45;;;11.10;92.50;;;;;;5100436;28;20031;-73
2024/03/13 09:08:56;;;;;;;3.22;1.60;;;11.20;92.50;;;;;;5135928;27;20032;-73
2024/03/13 09:11:21;;;;;;;2.58;1.20;;;11.20;92.60;;;;;;5117706;27;20122;-74
2024/03/13 09:13:47;;;;;;;2.50;1.50;;;11.20;92.60;;;;;;5135722;27;20099;-73
2024/03/13 09:16:14;;;;;;;2.22;1.40;;;11.20;92.60;;;;;;5117803;28;20046;-73
2024/03/13 09:18:41;;;;;;;2.47;1.23;;;11.20;92.60;;;;;;5116912;28;20134;-73
2024/03/13 09:21:07;;;;;;;2.55;1.30;;;11.30;92.60;;;;;;5135514;27;20122;-73
2024/03/13 09:23:32;;;;;;;1.63;1.10;;;11.30;92.60;;;;;;5136064;27;20134;-73
2024/03/13 09:25:59;;;;;;;2.50;1.30;;;11.30;92.60;;;;;;5117375;28;20121;-73
2024/03/13 09:28:27;;;;;;;1.98;1.10;;;11.30;92.60;;;;;;5100305;28;20077;-72
2024/03/13 09:30:52;;;;;;;2.13;1.00;;;11.30;92.60;;;;;;5135647;27;20047;-72
2024/03/13 09:33:18;;;;;;;1.45;1.02;;;11.40;92.60;;;;;;5135579;27;20126;-73
2024/03/13 09:35:44;;;;;;;1.40;0.93;;;11.40;92.60;;;;;;5135656;27;20047;-72
2024/03/13 09:38:12;;;;;;;2.38;1.20;;;11.50;92.50;;;;;;5117046;27;20031;-73
2024/03/13 09:40:39;;;;;;;1.42;1.00;;;11.50;92.50;;;;;;5135455;28;20123;-74
2024/03/13 09:43:07;;;;;;;1.92;1.20;;;11.50;92.50;;;;;;5135121;27;20043;-73
2024/03/13 09:45:34;;;;;;;2.00;1.25;;;11.60;92.50;;;;;;5135398;27;20039;-73
2024/03/13 09:48:01;;;;;;;2.47;1.30;;;11.60;92.50;;;;;;5116562;28;20390;-73
2024/03/13 09:50:28;;;;;;;2.55;1.40;;;11.70;92.40;;;;;;5135400;27;20069;-72
2024/03/13 09:52:55;;;;;;;2.63;1.30;;;11.80;92.40;;;;;;5099869;28;20051;-73
2024/03/13 09:55:21;;;;;;;2.10;1.33;;;11.70;92.40;;;;;;5116857;28;20058;-73
2024/03/13 09:57:50;;;;;;;1.80;1.27;;;11.80;92.40;;;;;;5135426;27;20031;-73
2024/03/13 10:00:19;;;;;;;2.08;1.17;;;11.80;92.40;;;;;;5133210;28;20039;-73
2024/03/13 10:02:49;;;;;;;2.10;1.50;;;11.80;92.40;;;;;;5135066;28;20635;-73
2024/03/13 10:05:18;;;;;;;4.35;2.03;;;11.70;92.40;;;;;;5117758;28;20127;-73
2024/03/13 10:07:47;;;;;;;3.50;2.10;;;11.80;92.40;;;;;;5135476;27;20043;-73
2024/03/13 10:10:24;;;;;;;4.65;2.33;;;11.70;92.50;;;;;;5116406;28;20509;-73
2024/03/13 10:12:50;;;;;;;5.68;2.55;;;11.70;92.50;;;;;;5115957;28;20109;-73
2024/03/13 10:15:18;;;;;;;4.13;1.98;;;11.70;92.50;;;;;;5116792;28;20039;-73
2024/03/13 10:17:54;;;;;;;4.97;2.15;;;11.80;92.50;;;;;;5116381;28;20045;-73
2024/03/13 10:20:22;;;;;;;5.55;1.98;;;11.80;92.50;;;;;;5133528;28;20053;-73
2024/03/13 10:22:49;;;;;;;4.80;2.17;;;11.80;92.50;;;;;;5097817;28;20051;-73
2024/03/13 10:25:19;;;;;;;7.35;2.85;;;11.80;92.50;;;;;;5116866;28;20083;-72
2024/03/13 10:27:44;;;;;;;4.85;2.55;;;11.70;92.50;;;;;;5134786;28;20099;-73
2024/03/13 10:30:12;;;;;;;5.40;2.85;;;11.80;92.50;;;;;;5115915;28;20440;-73
2024/03/13 10:32:40;;;;;;;5.10;2.72;;;11.90;92.60;;;;;;5116506;28;20043;-72
2024/03/13 10:35:08;;;;;;;7.45;3.28;;;11.80;92.50;;;;;;5134487;27;20035;-72
2024/03/13 10:37:35;;;;;;;7.68;3.47;;;11.70;92.50;;;;;;5082537;28;20047;-73
2024/03/13 10:40:05;;;;;;;6.18;3.42;;;11.60;92.50;;;;;;5115931;28;20049;-73
2024/03/13 10:42:31;;;;;;;8.05;3.42;;;11.60;92.60;;;;;;5134296;28;20046;-72
2024/03/13 10:44:58;;;;;;;8.85;3.90;;;11.60;92.60;;;;;;5098203;28;20035;-73
2024/03/13 10:47:27;;;;;;;5.90;3.10;;;11.70;92.70;;;;;;5134677;28;20039;-74
2024/03/13 10:49:55;;;;;;;6.40;3.40;;;11.50;92.70;;;;;;5113929;28;20054;-72
2024/03/13 10:52:21;;;;;;;6.47;3.53;;;11.60;92.70;;;;;;5113896;28;20035;-72
2024/03/13 10:54:47;;;;;;;7.18;3.47;;;11.60;92.70;;;;;;5116026;27;20050;-72
2024/03/13 10:57:18;;;;;;;7.25;3.92;;;11.70;92.70;;;;;;5134329;27;20591;-72
2024/03/13 10:59:47;;;;;;;7.47;3.13;;;11.80;92.80;;;;;;5134100;28;20043;-73
2024/03/13 11:02:14;;;;;;;6.43;3.15;;;11.70;92.60;;;;;;5133930;27;20035;-72
2024/03/13 11:04:41;;;;;;;5.05;2.65;;;11.80;92.60;;;;;;5133806;27;20053;-72
2024/03/13 11:07:12;;;;;;;6.65;3.30;;;11.90;92.60;;;;;;5134035;27;20066;-73
2024/03/13 11:09:39;;;;;;;5.47;2.83;;;11.90;92.60;;;;;;5132176;28;20038;-73
2024/03/13 11:12:23;;;;;;;5.18;2.70;;;12.00;92.50;;;;;;5133947;28;20043;-72
2024/03/13 11:14:55;;;;;;;5.75;3.10;;;12.00;92.50;;;;;;5115509;28;20038;-72
2024/03/13 11:17:22;;;;;;;6.32;2.92;;;12.00;92.50;;;;;;5134155;27;20089;-72
2024/03/13 11:20:05;;;;;;;5.20;2.90;;;12.10;92.50;;;;;;5133954;27;20035;-72
2024/03/13 11:22:33;;;;;;;7.40;3.35;;;12.10;92.40;;;;;;5132783;28;20069;-73
2024/03/13 11:25:01;;;;;;;5.75;3.15;;;12.10;92.40;;;;;;5132627;27;20043;-73
2024/03/13 11:27:27;;;;;;;5.32;2.92;;;12.10;92.30;;;;;;5115231;28;20072;-72
2024/03/13 11:29:55;;;;;;;5.57;3.15;;;12.10;92.30;;;;;;5133693;27;20505;-73
2024/03/13 11:32:21;;;;;;;5.78;3.00;;;12.10;92.30;;;;;;5134002;27;20065;-73
2024/03/13 11:34:49;;;;;;;4.60;2.80;;;12.10;92.40;;;;;;5133509;27;20036;-73
2024/03/13 11:37:17;;;;;;;5.20;2.65;;;12.10;92.40;;;;;;5133680;27;20084;-74
2024/03/13 11:39:44;;;;;;;5.57;2.92;;;12.10;92.40;;;;;;5133837;27;20046;-73
2024/03/13 11:42:12;;;;;;;5.15;2.55;;;12.20;92.40;;;;;;5096361;28;20035;-73
2024/03/13 11:44:42;;;;;;;5.70;3.30;;;12.20;92.30;;;;;;5133295;27;20039;-73
2024/03/13 11:47:11;;;;;;;5.70;3.28;;;12.30;92.30;;;;;;5133292;27;20483;-73
2024/03/13 11:49:40;;;;;;;4.80;3.03;;;12.20;92.30;;;;;;5133267;27;20035;-73
2024/03/13 11:52:15;;;;;;;5.35;3.03;;;12.20;92.30;;;;;;5115351;28;20062;-73
2024/03/13 11:54:43;;;;;;;5.88;3.13;;;12.20;92.40;;;;;;5133707;27;20034;-73
2024/03/13 11:57:13;;;;;;;6.43;3.58;;;12.20;92.40;;;;;;5115101;27;20055;-74
2024/03/13 11:59:42;;;;;;;5.65;3.00;;;12.20;92.40;;;;;;5133078;27;20087;-73
2024/03/13 12:02:37;;;;;;;6.88;3.70;;;12.20;92.40;;;;;;5114813;28;20087;-73
2024/03/13 12:05:04;;;;;;;7.78;4.35;;;12.30;92.40;;;;;;5131960;28;20039;-73
2024/03/13 12:07:37;;;;;;;6.55;4.15;;;12.20;92.30;;;;;;5115506;28;20095;-74
2024/03/13 12:10:03;;;;;;;5.55;3.80;;;12.20;92.30;;;;;;5096659;28;20039;-74
2024/03/13 12:12:30;;;;;;;7.95;3.83;;;12.20;92.30;;;;;;5115123;28;20031;-73
2024/03/13 12:14:55;;;;;;;5.70;3.50;;;12.20;92.30;;;;;;5097704;28;20042;-73
2024/03/13 12:17:21;;;;;;;7.45;4.20;;;12.20;92.30;;;;;;5114992;28;20394;-73
2024/03/13 12:19:47;;;;;;;7.47;3.80;;;12.20;92.30;;;;;;5132803;27;20050;-73
2024/03/13 12:22:13;;;;;;;8.18;4.13;;;12.10;92.30;;;;;;5114566;28;20122;-73
2024/03/13 12:24:39;;;;;;;8.40;4.30;;;12.10;92.30;;;;;;5133029;27;20043;-74
2024/03/13 12:27:07;;;;;;;6.70;3.88;;;12.20;92.30;;;;;;5114467;28;20047;-73
2024/03/13 12:29:34;;;;;;;6.55;3.97;;;12.20;92.30;;;;;;5098017;28;20126;-74
2024/03/13 12:32:01;;;;;;;6.20;3.97;;;12.20;92.30;;;;;;5095592;27;20050;-73
2024/03/13 12:34:28;;;;;;;5.97;3.70;;;12.20;92.30;;;;;;5133181;27;20475;-73
2024/03/13 12:36:56;;;;;;;6.13;4.03;;;12.20;92.30;;;;;;5136580;27;20063;-73
2024/03/13 12:39:22;;;;;;;8.98;3.70;;;12.30;92.30;;;;;;5136374;27;20039;-74
2024/03/13 12:41:48;;;;;;;5.88;3.70;;;12.30;92.30;;;;;;5136265;27;20043;-73
2024/03/13 12:44:15;;;;;;;8.27;4.65;;;12.30;92.20;;;;;;5136861;27;20070;-73
2024/03/13 12:46:41;;;;;;;6.05;4.07;;;12.30;92.20;;;;;;5118198;27;20126;-74
2024/03/13 12:49:12;;;;;;;6.28;3.55;;;12.20;92.20;;;;;;5136768;27;20036;-73
2024/03/13 12:51:39;;;;;;;7.18;3.70;;;12.30;92.30;;;;;;5118734;28;20470;-73
2024/03/13 12:54:06;;;;;;;8.70;4.20;;;12.30;92.30;;;;;;5100644;28;20137;-73
2024/03/13 12:56:33;;;;;;;9.32;4.25;;;12.30;92.30;;;;;;5136020;27;20122;-73
2024/03/13 12:58:59;;;;;;;7.00;3.75;;;12.30;92.30;;;;;;5136169;27;20027;-73
2024/03/13 13:01:26;;;;;;;5.53;3.40;;;12.30;92.20;;;;;;5100725;27;20095;-73
2024/03/13 13:03:53;;;;;;;6.38;3.90;;;12.40;92.20;;;;;;5117924;28;20176;-75
2024/03/13 13:06:22;;;;;;;6.15;3.42;;;12.40;92.30;;;;;;5100465;28;20042;-74
2024/03/13 13:08:49;;;;;;;5.38;3.22;;;12.50;92.20;;;;;;5136256;27;20043;-74
2024/03/13 13:11:17;;;;;;;6.85;3.58;;;12.60;92.20;;;;;;5083924;28;20043;-74